sensor_id;sensor_type;location;lat;lon;timestamp;P1;durP1;ratioP1;P2;durP2;ratioP2
46355;SDS011;32066;49.474;11.106;2022-07-29T00:00:58;6.32;;;2.08;;
46355;SDS011;32066;49.474;11.106;2022-07-29T00:03:25;5.03;;;2.13;;
46355;SDS011;32066;49.474;11.106;2022-07-29T00:05:52;11.50;;;2.08;;
46355;SDS011;32066;49.474;11.106;2022-07-29T00:08:19;7.07;;;2.25;;
46355;SDS011;32066;49.474;11.106;2022-07-29T00:10:46;5.60;;;2.03;;
46355;SDS011;32066;49.474;11.106;2022-07-29T00:13:15;5.55;;;2.15;;
46355;SDS011;32066;49.474;11.106;2022-07-29T00:15:42;10.93;;;2.35;;
46355;SDS011;32066;49.474;11.106;2022-07-29T00:18:08;5.75;;;2.20;;
46355;SDS011;32066;49.474;11.106;2022-07-29T00:20:35;4.78;;;2.00;;
46355;SDS011;32066;49.474;11.106;2022-07-29T00:23:02;6.05;;;2.22;;
46355;SDS011;32066;49.474;11.106;2022-07-29T00:25:29;6.60;;;2.38;;
46355;SDS011;32066;49.474;11.106;2022-07-29T00:27:56;8.05;;;2.03;;
46355;SDS011;32066;49.474;11.106;2022-07-29T00:30:24;7.30;;;2.40;;
46355;SDS011;32066;49.474;11.106;2022-07-29T00:32:52;9.52;;;1.98;;
46355;SDS011;32066;49.474;11.106;2022-07-29T00:35:19;6.25;;;2.10;;
46355;SDS011;32066;49.474;11.106;2022-07-29T00:38:04;7.75;;;2.20;;
46355;SDS011;32066;49.474;11.106;2022-07-29T00:40:31;5.80;;;2.13;;
46355;SDS011;32066;49.474;11.106;2022-07-29T00:42:58;5.18;;;1.90;;
46355;SDS011;32066;49.474;11.106;2022-07-29T00:45:26;8.55;;;2.35;;
46355;SDS011;32066;49.474;11.106;2022-07-29T00:47:53;6.97;;;2.95;;
46355;SDS011;32066;49.474;11.106;2022-07-29T00:50:20;6.00;;;2.00;;
46355;SDS011;32066;49.474;11.106;2022-07-29T00:52:47;6.85;;;2.38;;
46355;SDS011;32066;49.474;11.106;2022-07-29T00:55:15;4.60;;;1.90;;
46355;SDS011;32066;49.474;11.106;2022-07-29T00:57:43;8.00;;;2.00;;
46355;SDS011;32066;49.474;11.106;2022-07-29T01:00:12;5.00;;;1.90;;
46355;SDS011;32066;49.474;11.106;2022-07-29T01:02:43;5.18;;;2.13;;
46355;SDS011;32066;49.474;11.106;2022-07-29T01:05:13;7.38;;;2.33;;
46355;SDS011;32066;49.474;11.106;2022-07-29T01:07:42;6.10;;;2.17;;
46355;SDS011;32066;49.474;11.106;2022-07-29T01:10:10;6.65;;;2.00;;
46355;SDS011;32066;49.474;11.106;2022-07-29T01:12:39;5.68;;;2.17;;
46355;SDS011;32066;49.474;11.106;2022-07-29T01:15:07;6.40;;;2.13;;
46355;SDS011;32066;49.474;11.106;2022-07-29T01:17:36;5.22;;;2.20;;
46355;SDS011;32066;49.474;11.106;2022-07-29T01:20:13;5.40;;;2.20;;
46355;SDS011;32066;49.474;11.106;2022-07-29T01:22:50;4.45;;;2.08;;
46355;SDS011;32066;49.474;11.106;2022-07-29T01:25:41;7.90;;;2.35;;
46355;SDS011;32066;49.474;11.106;2022-07-29T01:31:13;5.30;;;2.08;;
46355;SDS011;32066;49.474;11.106;2022-07-29T01:33:45;8.70;;;2.30;;
46355;SDS011;32066;49.474;11.106;2022-07-29T01:36:17;6.93;;;2.40;;
46355;SDS011;32066;49.474;11.106;2022-07-29T01:38:50;5.63;;;2.15;;
46355;SDS011;32066;49.474;11.106;2022-07-29T01:41:24;8.32;;;2.03;;
46355;SDS011;32066;49.474;11.106;2022-07-29T01:43:59;5.97;;;2.30;;
46355;SDS011;32066;49.474;11.106;2022-07-29T01:46:34;5.47;;;1.95;;
46355;SDS011;32066;49.474;11.106;2022-07-29T01:49:05;6.15;;;2.17;;
46355;SDS011;32066;49.474;11.106;2022-07-29T01:51:38;9.70;;;2.33;;
46355;SDS011;32066;49.474;11.106;2022-07-29T01:54:10;5.22;;;1.95;;
46355;SDS011;32066;49.474;11.106;2022-07-29T01:56:43;6.63;;;2.30;;
46355;SDS011;32066;49.474;11.106;2022-07-29T01:59:14;9.48;;;2.40;;
46355;SDS011;32066;49.474;11.106;2022-07-29T02:01:43;6.32;;;2.35;;
46355;SDS011;32066;49.474;11.106;2022-07-29T02:04:11;7.25;;;2.30;;
46355;SDS011;32066;49.474;11.106;2022-07-29T02:06:40;4.78;;;2.10;;
46355;SDS011;32066;49.474;11.106;2022-07-29T02:09:09;5.30;;;2.00;;
46355;SDS011;32066;49.474;11.106;2022-07-29T02:11:38;6.85;;;2.15;;
46355;SDS011;32066;49.474;11.106;2022-07-29T02:14:06;6.50;;;2.42;;
46355;SDS011;32066;49.474;11.106;2022-07-29T02:16:36;5.18;;;2.25;;
46355;SDS011;32066;49.474;11.106;2022-07-29T02:19:06;6.22;;;2.20;;
46355;SDS011;32066;49.474;11.106;2022-07-29T02:21:36;6.10;;;1.80;;
46355;SDS011;32066;49.474;11.106;2022-07-29T02:24:03;6.78;;;2.45;;
46355;SDS011;32066;49.474;11.106;2022-07-29T02:26:31;9.05;;;2.40;;
46355;SDS011;32066;49.474;11.106;2022-07-29T02:28:59;8.23;;;2.55;;
46355;SDS011;32066;49.474;11.106;2022-07-29T02:31:30;7.32;;;2.60;;
46355;SDS011;32066;49.474;11.106;2022-07-29T02:34:01;5.75;;;2.15;;
46355;SDS011;32066;49.474;11.106;2022-07-29T02:36:31;4.97;;;2.28;;
46355;SDS011;32066;49.474;11.106;2022-07-29T02:38:59;4.55;;;2.40;;
46355;SDS011;32066;49.474;11.106;2022-07-29T02:41:28;5.30;;;2.28;;
46355;SDS011;32066;49.474;11.106;2022-07-29T02:43:58;5.65;;;2.28;;
46355;SDS011;32066;49.474;11.106;2022-07-29T02:46:29;5.05;;;2.17;;
46355;SDS011;32066;49.474;11.106;2022-07-29T02:49:01;6.82;;;2.40;;
46355;SDS011;32066;49.474;11.106;2022-07-29T02:51:33;7.18;;;2.25;;
46355;SDS011;32066;49.474;11.106;2022-07-29T02:54:08;7.63;;;2.47;;
46355;SDS011;32066;49.474;11.106;2022-07-29T02:56:38;5.25;;;1.95;;
46355;SDS011;32066;49.474;11.106;2022-07-29T02:59:09;5.00;;;2.08;;
46355;SDS011;32066;49.474;11.106;2022-07-29T03:01:38;6.88;;;2.17;;
46355;SDS011;32066;49.474;11.106;2022-07-29T03:04:11;11.63;;;3.13;;
46355;SDS011;32066;49.474;11.106;2022-07-29T03:06:41;6.20;;;2.13;;
46355;SDS011;32066;49.474;11.106;2022-07-29T03:09:10;5.05;;;2.08;;
46355;SDS011;32066;49.474;11.106;2022-07-29T03:11:37;6.90;;;2.10;;
46355;SDS011;32066;49.474;11.106;2022-07-29T03:14:05;7.03;;;2.10;;
46355;SDS011;32066;49.474;11.106;2022-07-29T03:16:33;9.25;;;2.35;;
46355;SDS011;32066;49.474;11.106;2022-07-29T03:19:02;6.18;;;2.47;;
46355;SDS011;32066;49.474;11.106;2022-07-29T03:21:31;7.95;;;2.33;;
46355;SDS011;32066;49.474;11.106;2022-07-29T03:23:59;6.07;;;2.40;;
46355;SDS011;32066;49.474;11.106;2022-07-29T03:26:26;8.25;;;2.08;;
46355;SDS011;32066;49.474;11.106;2022-07-29T03:28:54;8.52;;;3.15;;
46355;SDS011;32066;49.474;11.106;2022-07-29T03:31:21;8.57;;;2.50;;
46355;SDS011;32066;49.474;11.106;2022-07-29T03:33:48;5.95;;;2.50;;
46355;SDS011;32066;49.474;11.106;2022-07-29T03:36:15;6.18;;;2.55;;
46355;SDS011;32066;49.474;11.106;2022-07-29T03:38:43;5.68;;;2.05;;
46355;SDS011;32066;49.474;11.106;2022-07-29T03:41:11;7.13;;;2.30;;
46355;SDS011;32066;49.474;11.106;2022-07-29T03:43:40;4.63;;;1.95;;
46355;SDS011;32066;49.474;11.106;2022-07-29T03:46:09;6.90;;;2.05;;
46355;SDS011;32066;49.474;11.106;2022-07-29T03:48:39;8.60;;;2.10;;
46355;SDS011;32066;49.474;11.106;2022-07-29T03:51:11;5.40;;;2.00;;
46355;SDS011;32066;49.474;11.106;2022-07-29T03:53:39;7.45;;;2.10;;
46355;SDS011;32066;49.474;11.106;2022-07-29T03:56:07;5.18;;;2.35;;
46355;SDS011;32066;49.474;11.106;2022-07-29T03:58:41;5.94;;;2.44;;
46355;SDS011;32066;49.474;11.106;2022-07-29T04:01:09;7.80;;;2.47;;
46355;SDS011;32066;49.474;11.106;2022-07-29T04:03:37;8.82;;;2.28;;
46355;SDS011;32066;49.474;11.106;2022-07-29T04:06:06;9.38;;;2.40;;
46355;SDS011;32066;49.474;11.106;2022-07-29T04:08:33;5.05;;;2.25;;
46355;SDS011;32066;49.474;11.106;2022-07-29T04:11:01;7.05;;;2.67;;
46355;SDS011;32066;49.474;11.106;2022-07-29T04:13:30;5.28;;;2.60;;
46355;SDS011;32066;49.474;11.106;2022-07-29T04:15:57;7.07;;;1.95;;
46355;SDS011;32066;49.474;11.106;2022-07-29T04:18:24;5.88;;;2.22;;
46355;SDS011;32066;49.474;11.106;2022-07-29T04:20:51;5.78;;;2.10;;
46355;SDS011;32066;49.474;11.106;2022-07-29T04:23:18;5.20;;;2.05;;
46355;SDS011;32066;49.474;11.106;2022-07-29T04:25:45;6.68;;;2.00;;
46355;SDS011;32066;49.474;11.106;2022-07-29T04:28:13;5.15;;;2.00;;
46355;SDS011;32066;49.474;11.106;2022-07-29T04:30:41;4.65;;;2.20;;
46355;SDS011;32066;49.474;11.106;2022-07-29T04:33:08;7.43;;;2.00;;
46355;SDS011;32066;49.474;11.106;2022-07-29T04:35:36;5.60;;;2.08;;
46355;SDS011;32066;49.474;11.106;2022-07-29T04:38:04;4.85;;;2.38;;
46355;SDS011;32066;49.474;11.106;2022-07-29T04:40:32;5.75;;;2.22;;
46355;SDS011;32066;49.474;11.106;2022-07-29T04:43:00;6.25;;;2.35;;
46355;SDS011;32066;49.474;11.106;2022-07-29T04:45:27;6.05;;;2.00;;
46355;SDS011;32066;49.474;11.106;2022-07-29T04:47:56;6.28;;;2.28;;
46355;SDS011;32066;49.474;11.106;2022-07-29T04:50:23;5.30;;;1.90;;
46355;SDS011;32066;49.474;11.106;2022-07-29T04:52:50;5.53;;;1.98;;
46355;SDS011;32066;49.474;11.106;2022-07-29T04:55:17;5.95;;;2.80;;
46355;SDS011;32066;49.474;11.106;2022-07-29T04:57:44;6.88;;;2.50;;
46355;SDS011;32066;49.474;11.106;2022-07-29T05:00:11;7.82;;;2.25;;
46355;SDS011;32066;49.474;11.106;2022-07-29T05:02:39;6.88;;;2.35;;
46355;SDS011;32066;49.474;11.106;2022-07-29T05:05:08;9.25;;;2.60;;
46355;SDS011;32066;49.474;11.106;2022-07-29T05:07:35;7.65;;;2.45;;
46355;SDS011;32066;49.474;11.106;2022-07-29T05:10:02;6.95;;;2.13;;
46355;SDS011;32066;49.474;11.106;2022-07-29T05:12:29;7.18;;;2.30;;
46355;SDS011;32066;49.474;11.106;2022-07-29T05:14:56;8.00;;;2.28;;
46355;SDS011;32066;49.474;11.106;2022-07-29T05:17:23;8.02;;;2.30;;
46355;SDS011;32066;49.474;11.106;2022-07-29T05:19:50;7.97;;;2.28;;
46355;SDS011;32066;49.474;11.106;2022-07-29T05:22:19;5.03;;;2.30;;
46355;SDS011;32066;49.474;11.106;2022-07-29T05:24:46;7.60;;;2.17;;
46355;SDS011;32066;49.474;11.106;2022-07-29T05:27:13;6.22;;;2.50;;
46355;SDS011;32066;49.474;11.106;2022-07-29T05:29:40;7.05;;;2.22;;
46355;SDS011;32066;49.474;11.106;2022-07-29T05:32:07;9.15;;;2.83;;
46355;SDS011;32066;49.474;11.106;2022-07-29T05:34:34;7.90;;;2.42;;
46355;SDS011;32066;49.474;11.106;2022-07-29T05:37:01;12.48;;;2.80;;
46355;SDS011;32066;49.474;11.106;2022-07-29T05:39:29;6.72;;;2.30;;
46355;SDS011;32066;49.474;11.106;2022-07-29T05:41:56;8.52;;;2.55;;
46355;SDS011;32066;49.474;11.106;2022-07-29T05:44:23;7.47;;;2.63;;
46355;SDS011;32066;49.474;11.106;2022-07-29T05:46:50;9.48;;;2.78;;
46355;SDS011;32066;49.474;11.106;2022-07-29T05:49:17;7.93;;;2.70;;
46355;SDS011;32066;49.474;11.106;2022-07-29T05:51:44;4.53;;;2.20;;
46355;SDS011;32066;49.474;11.106;2022-07-29T05:54:12;5.68;;;2.33;;
46355;SDS011;32066;49.474;11.106;2022-07-29T05:56:40;9.10;;;2.50;;
46355;SDS011;32066;49.474;11.106;2022-07-29T05:59:07;7.20;;;2.55;;
46355;SDS011;32066;49.474;11.106;2022-07-29T06:01:34;6.03;;;2.50;;
46355;SDS011;32066;49.474;11.106;2022-07-29T06:04:04;6.45;;;2.35;;
46355;SDS011;32066;49.474;11.106;2022-07-29T06:06:31;11.63;;;2.35;;
46355;SDS011;32066;49.474;11.106;2022-07-29T06:08:58;8.68;;;2.40;;
46355;SDS011;32066;49.474;11.106;2022-07-29T06:11:25;8.75;;;2.50;;
46355;SDS011;32066;49.474;11.106;2022-07-29T06:13:54;9.85;;;2.60;;
46355;SDS011;32066;49.474;11.106;2022-07-29T06:16:21;7.28;;;2.40;;
46355;SDS011;32066;49.474;11.106;2022-07-29T06:18:48;6.18;;;2.40;;
46355;SDS011;32066;49.474;11.106;2022-07-29T06:21:15;6.63;;;2.53;;
46355;SDS011;32066;49.474;11.106;2022-07-29T06:23:42;8.60;;;2.63;;
46355;SDS011;32066;49.474;11.106;2022-07-29T06:26:11;8.25;;;2.70;;
46355;SDS011;32066;49.474;11.106;2022-07-29T06:28:38;7.80;;;2.65;;
46355;SDS011;32066;49.474;11.106;2022-07-29T06:31:06;9.50;;;2.97;;
46355;SDS011;32066;49.474;11.106;2022-07-29T06:33:34;8.00;;;2.50;;
46355;SDS011;32066;49.474;11.106;2022-07-29T06:36:03;12.77;;;2.80;;
46355;SDS011;32066;49.474;11.106;2022-07-29T06:38:30;8.02;;;2.75;;
46355;SDS011;32066;49.474;11.106;2022-07-29T06:40:57;6.60;;;2.83;;
46355;SDS011;32066;49.474;11.106;2022-07-29T06:43:26;7.00;;;2.90;;
46355;SDS011;32066;49.474;11.106;2022-07-29T06:45:56;6.63;;;2.60;;
46355;SDS011;32066;49.474;11.106;2022-07-29T06:48:26;9.43;;;3.10;;
46355;SDS011;32066;49.474;11.106;2022-07-29T06:50:53;8.65;;;3.03;;
46355;SDS011;32066;49.474;11.106;2022-07-29T06:53:20;8.48;;;2.80;;
46355;SDS011;32066;49.474;11.106;2022-07-29T06:55:47;6.40;;;3.28;;
46355;SDS011;32066;49.474;11.106;2022-07-29T06:58:15;6.32;;;2.80;;
46355;SDS011;32066;49.474;11.106;2022-07-29T07:00:48;4.47;;;2.60;;
46355;SDS011;32066;49.474;11.106;2022-07-29T07:03:16;6.35;;;2.70;;
46355;SDS011;32066;49.474;11.106;2022-07-29T07:05:45;7.43;;;3.08;;
46355;SDS011;32066;49.474;11.106;2022-07-29T07:08:12;8.68;;;3.25;;
46355;SDS011;32066;49.474;11.106;2022-07-29T07:10:41;12.23;;;3.08;;
46355;SDS011;32066;49.474;11.106;2022-07-29T07:13:08;7.20;;;3.08;;
46355;SDS011;32066;49.474;11.106;2022-07-29T07:15:35;11.38;;;2.90;;
46355;SDS011;32066;49.474;11.106;2022-07-29T07:18:03;11.77;;;2.88;;
46355;SDS011;32066;49.474;11.106;2022-07-29T07:20:30;7.93;;;3.15;;
46355;SDS011;32066;49.474;11.106;2022-07-29T07:22:59;7.90;;;3.20;;
46355;SDS011;32066;49.474;11.106;2022-07-29T07:25:26;5.55;;;2.50;;
46355;SDS011;32066;49.474;11.106;2022-07-29T07:27:53;7.80;;;3.45;;
46355;SDS011;32066;49.474;11.106;2022-07-29T07:30:20;7.00;;;2.83;;
46355;SDS011;32066;49.474;11.106;2022-07-29T07:32:47;6.05;;;2.92;;
46355;SDS011;32066;49.474;11.106;2022-07-29T07:35:15;7.28;;;2.70;;
46355;SDS011;32066;49.474;11.106;2022-07-29T07:37:42;6.10;;;3.10;;
46355;SDS011;32066;49.474;11.106;2022-07-29T07:40:11;8.77;;;3.33;;
46355;SDS011;32066;49.474;11.106;2022-07-29T07:42:38;5.95;;;3.03;;
46355;SDS011;32066;49.474;11.106;2022-07-29T07:45:06;8.27;;;3.10;;
46355;SDS011;32066;49.474;11.106;2022-07-29T07:47:35;7.40;;;2.75;;
46355;SDS011;32066;49.474;11.106;2022-07-29T07:50:02;8.48;;;3.05;;
46355;SDS011;32066;49.474;11.106;2022-07-29T07:52:30;7.65;;;3.13;;
46355;SDS011;32066;49.474;11.106;2022-07-29T07:54:57;7.68;;;2.97;;
46355;SDS011;32066;49.474;11.106;2022-07-29T07:57:26;8.65;;;3.08;;
46355;SDS011;32066;49.474;11.106;2022-07-29T07:59:53;6.72;;;3.10;;
46355;SDS011;32066;49.474;11.106;2022-07-29T08:02:20;9.32;;;2.90;;
46355;SDS011;32066;49.474;11.106;2022-07-29T08:04:47;7.63;;;3.30;;
46355;SDS011;32066;49.474;11.106;2022-07-29T08:07:14;11.90;;;2.90;;
46355;SDS011;32066;49.474;11.106;2022-07-29T08:09:41;9.55;;;3.03;;
46355;SDS011;32066;49.474;11.106;2022-07-29T08:12:09;6.45;;;2.97;;
46355;SDS011;32066;49.474;11.106;2022-07-29T08:14:37;8.82;;;3.17;;
46355;SDS011;32066;49.474;11.106;2022-07-29T08:17:04;8.02;;;3.13;;
46355;SDS011;32066;49.474;11.106;2022-07-29T08:19:31;7.35;;;2.90;;
46355;SDS011;32066;49.474;11.106;2022-07-29T08:21:58;6.70;;;2.97;;
46355;SDS011;32066;49.474;11.106;2022-07-29T08:24:25;11.40;;;3.08;;
46355;SDS011;32066;49.474;11.106;2022-07-29T08:27:17;8.98;;;2.90;;
46355;SDS011;32066;49.474;11.106;2022-07-29T08:29:46;8.75;;;3.05;;
46355;SDS011;32066;49.474;11.106;2022-07-29T08:32:13;8.48;;;2.75;;
46355;SDS011;32066;49.474;11.106;2022-07-29T08:34:40;14.27;;;3.05;;
46355;SDS011;32066;49.474;11.106;2022-07-29T08:37:07;7.53;;;3.03;;
46355;SDS011;32066;49.474;11.106;2022-07-29T08:39:34;8.25;;;3.50;;
46355;SDS011;32066;49.474;11.106;2022-07-29T08:42:01;10.45;;;3.17;;
46355;SDS011;32066;49.474;11.106;2022-07-29T08:44:29;7.45;;;3.30;;
46355;SDS011;32066;49.474;11.106;2022-07-29T08:46:59;5.85;;;3.10;;
46355;SDS011;32066;49.474;11.106;2022-07-29T08:49:26;8.55;;;3.25;;
46355;SDS011;32066;49.474;11.106;2022-07-29T08:51:53;7.75;;;3.15;;
46355;SDS011;32066;49.474;11.106;2022-07-29T08:54:21;7.60;;;3.47;;
46355;SDS011;32066;49.474;11.106;2022-07-29T08:56:49;7.78;;;3.40;;
46355;SDS011;32066;49.474;11.106;2022-07-29T08:59:18;5.75;;;3.42;;
46355;SDS011;32066;49.474;11.106;2022-07-29T09:01:46;6.40;;;3.40;;
46355;SDS011;32066;49.474;11.106;2022-07-29T09:04:15;6.40;;;3.30;;
46355;SDS011;32066;49.474;11.106;2022-07-29T09:06:45;9.48;;;3.33;;
46355;SDS011;32066;49.474;11.106;2022-07-29T09:09:15;8.98;;;3.20;;
46355;SDS011;32066;49.474;11.106;2022-07-29T09:11:42;6.40;;;3.28;;
46355;SDS011;32066;49.474;11.106;2022-07-29T09:14:11;10.30;;;3.40;;
46355;SDS011;32066;49.474;11.106;2022-07-29T09:16:52;9.90;;;3.38;;
46355;SDS011;32066;49.474;11.106;2022-07-29T09:19:22;8.18;;;3.20;;
46355;SDS011;32066;49.474;11.106;2022-07-29T09:21:50;5.55;;;2.95;;
46355;SDS011;32066;49.474;11.106;2022-07-29T09:24:24;6.78;;;3.13;;
46355;SDS011;32066;49.474;11.106;2022-07-29T09:26:52;8.20;;;3.33;;
46355;SDS011;32066;49.474;11.106;2022-07-29T09:29:19;6.30;;;3.40;;
46355;SDS011;32066;49.474;11.106;2022-07-29T09:31:48;8.55;;;3.20;;
46355;SDS011;32066;49.474;11.106;2022-07-29T09:34:21;6.63;;;3.42;;
46355;SDS011;32066;49.474;11.106;2022-07-29T09:36:50;6.18;;;2.97;;
46355;SDS011;32066;49.474;11.106;2022-07-29T09:39:26;7.60;;;3.20;;
46355;SDS011;32066;49.474;11.106;2022-07-29T09:41:56;6.28;;;3.13;;
46355;SDS011;32066;49.474;11.106;2022-07-29T09:44:24;6.72;;;3.20;;
46355;SDS011;32066;49.474;11.106;2022-07-29T09:46:55;5.32;;;3.22;;
46355;SDS011;32066;49.474;11.106;2022-07-29T09:49:25;7.45;;;3.35;;
46355;SDS011;32066;49.474;11.106;2022-07-29T09:52:03;5.90;;;3.33;;
46355;SDS011;32066;49.474;11.106;2022-07-29T09:54:31;7.15;;;3.75;;
46355;SDS011;32066;49.474;11.106;2022-07-29T09:57:02;12.02;;;3.92;;
46355;SDS011;32066;49.474;11.106;2022-07-29T09:59:31;9.10;;;3.38;;
46355;SDS011;32066;49.474;11.106;2022-07-29T10:01:59;10.75;;;3.38;;
46355;SDS011;32066;49.474;11.106;2022-07-29T10:04:37;10.30;;;3.80;;
46355;SDS011;32066;49.474;11.106;2022-07-29T10:07:05;6.65;;;3.13;;
46355;SDS011;32066;49.474;11.106;2022-07-29T10:09:33;6.38;;;3.30;;
46355;SDS011;32066;49.474;11.106;2022-07-29T10:12:07;7.45;;;3.50;;
46355;SDS011;32066;49.474;11.106;2022-07-29T10:14:36;11.88;;;3.55;;
46355;SDS011;32066;49.474;11.106;2022-07-29T10:17:04;7.45;;;3.63;;
46355;SDS011;32066;49.474;11.106;2022-07-29T10:19:32;5.80;;;3.25;;
46355;SDS011;32066;49.474;11.106;2022-07-29T10:22:02;5.35;;;3.60;;
46355;SDS011;32066;49.474;11.106;2022-07-29T10:24:31;7.97;;;3.97;;
46355;SDS011;32066;49.474;11.106;2022-07-29T10:26:59;11.40;;;3.95;;
46355;SDS011;32066;49.474;11.106;2022-07-29T10:29:27;11.60;;;3.72;;
46355;SDS011;32066;49.474;11.106;2022-07-29T10:32:15;6.85;;;3.72;;
46355;SDS011;32066;49.474;11.106;2022-07-29T10:34:57;9.23;;;3.75;;
46355;SDS011;32066;49.474;11.106;2022-07-29T10:37:44;7.05;;;4.03;;
46355;SDS011;32066;49.474;11.106;2022-07-29T10:40:26;6.00;;;3.80;;
46355;SDS011;32066;49.474;11.106;2022-07-29T10:43:17;7.75;;;4.00;;
46355;SDS011;32066;49.474;11.106;2022-07-29T10:45:48;8.02;;;3.92;;
46355;SDS011;32066;49.474;11.106;2022-07-29T10:48:24;8.65;;;4.03;;
46355;SDS011;32066;49.474;11.106;2022-07-29T10:50:51;7.53;;;3.63;;
46355;SDS011;32066;49.474;11.106;2022-07-29T10:53:22;7.43;;;4.53;;
46355;SDS011;32066;49.474;11.106;2022-07-29T10:55:50;8.32;;;4.30;;
46355;SDS011;32066;49.474;11.106;2022-07-29T10:58:18;7.07;;;4.00;;
46355;SDS011;32066;49.474;11.106;2022-07-29T11:00:48;8.27;;;4.30;;
46355;SDS011;32066;49.474;11.106;2022-07-29T11:06:11;6.85;;;3.40;;
46355;SDS011;32066;49.474;11.106;2022-07-29T11:08:40;6.75;;;3.53;;
46355;SDS011;32066;49.474;11.106;2022-07-29T11:14:03;7.50;;;4.40;;
46355;SDS011;32066;49.474;11.106;2022-07-29T11:19:27;5.95;;;3.70;;
46355;SDS011;32066;49.474;11.106;2022-07-29T11:21:55;6.30;;;4.13;;
46355;SDS011;32066;49.474;11.106;2022-07-29T11:24:24;8.02;;;4.30;;
46355;SDS011;32066;49.474;11.106;2022-07-29T11:27:09;10.02;;;4.13;;
46355;SDS011;32066;49.474;11.106;2022-07-29T11:29:49;6.13;;;4.07;;
46355;SDS011;32066;49.474;11.106;2022-07-29T11:32:18;9.23;;;4.53;;
46355;SDS011;32066;49.474;11.106;2022-07-29T11:34:47;8.85;;;4.60;;
46355;SDS011;32066;49.474;11.106;2022-07-29T11:37:19;7.55;;;4.78;;
46355;SDS011;32066;49.474;11.106;2022-07-29T11:42:42;6.15;;;4.20;;
46355;SDS011;32066;49.474;11.106;2022-07-29T11:45:11;7.15;;;4.15;;
46355;SDS011;32066;49.474;11.106;2022-07-29T11:47:50;8.05;;;4.45;;
46355;SDS011;32066;49.474;11.106;2022-07-29T11:50:26;7.13;;;3.92;;
46355;SDS011;32066;49.474;11.106;2022-07-29T11:53:01;9.32;;;4.32;;
46355;SDS011;32066;49.474;11.106;2022-07-29T11:55:31;8.07;;;4.05;;
46355;SDS011;32066;49.474;11.106;2022-07-29T11:58:01;7.93;;;4.05;;
46355;SDS011;32066;49.474;11.106;2022-07-29T12:00:29;7.97;;;3.85;;
46355;SDS011;32066;49.474;11.106;2022-07-29T12:02:59;5.72;;;4.03;;
46355;SDS011;32066;49.474;11.106;2022-07-29T12:08:13;7.20;;;3.93;;
46355;SDS011;32066;49.474;11.106;2022-07-29T12:10:46;7.00;;;4.25;;
46355;SDS011;32066;49.474;11.106;2022-07-29T12:13:14;7.93;;;4.10;;
46355;SDS011;32066;49.474;11.106;2022-07-29T12:15:42;6.35;;;3.78;;
46355;SDS011;32066;49.474;11.106;2022-07-29T12:18:19;6.55;;;3.97;;
46355;SDS011;32066;49.474;11.106;2022-07-29T12:20:47;8.20;;;3.70;;
46355;SDS011;32066;49.474;11.106;2022-07-29T12:23:14;6.25;;;3.42;;
46355;SDS011;32066;49.474;11.106;2022-07-29T12:25:42;6.82;;;4.03;;
46355;SDS011;32066;49.474;11.106;2022-07-29T12:28:12;7.20;;;3.85;;
46355;SDS011;32066;49.474;11.106;2022-07-29T12:30:44;7.30;;;4.00;;
46355;SDS011;32066;49.474;11.106;2022-07-29T12:33:17;7.70;;;3.97;;
46355;SDS011;32066;49.474;11.106;2022-07-29T12:35:47;8.45;;;3.78;;
46355;SDS011;32066;49.474;11.106;2022-07-29T12:38:16;7.63;;;3.70;;
46355;SDS011;32066;49.474;11.106;2022-07-29T12:40:44;7.50;;;3.80;;
46355;SDS011;32066;49.474;11.106;2022-07-29T12:43:13;8.15;;;3.75;;
46355;SDS011;32066;49.474;11.106;2022-07-29T12:45:43;4.53;;;2.95;;
46355;SDS011;32066;49.474;11.106;2022-07-29T12:48:11;6.80;;;3.33;;
46355;SDS011;32066;49.474;11.106;2022-07-29T12:50:51;6.10;;;3.72;;
46355;SDS011;32066;49.474;11.106;2022-07-29T12:53:19;7.35;;;3.60;;
46355;SDS011;32066;49.474;11.106;2022-07-29T12:55:47;11.93;;;3.90;;
46355;SDS011;32066;49.474;11.106;2022-07-29T12:58:28;5.28;;;4.03;;
46355;SDS011;32066;49.474;11.106;2022-07-29T13:01:01;6.47;;;3.90;;
46355;SDS011;32066;49.474;11.106;2022-07-29T13:03:49;7.18;;;4.32;;
46355;SDS011;32066;49.474;11.106;2022-07-29T13:06:31;7.27;;;3.57;;
46355;SDS011;32066;49.474;11.106;2022-07-29T13:09:00;7.35;;;4.00;;
46355;SDS011;32066;49.474;11.106;2022-07-29T13:11:29;9.15;;;4.03;;
46355;SDS011;32066;49.474;11.106;2022-07-29T13:13:58;8.63;;;4.20;;
46355;SDS011;32066;49.474;11.106;2022-07-29T13:16:25;6.72;;;3.85;;
46355;SDS011;32066;49.474;11.106;2022-07-29T13:19:09;8.00;;;3.90;;
46355;SDS011;32066;49.474;11.106;2022-07-29T13:21:37;9.10;;;3.90;;
46355;SDS011;32066;49.474;11.106;2022-07-29T13:24:05;6.15;;;3.75;;
46355;SDS011;32066;49.474;11.106;2022-07-29T13:26:33;10.32;;;3.80;;
46355;SDS011;32066;49.474;11.106;2022-07-29T13:29:03;15.43;;;4.07;;
46355;SDS011;32066;49.474;11.106;2022-07-29T13:31:29;8.65;;;4.00;;
46355;SDS011;32066;49.474;11.106;2022-07-29T13:33:56;6.45;;;3.63;;
46355;SDS011;32066;49.474;11.106;2022-07-29T13:36:23;5.45;;;3.53;;
46355;SDS011;32066;49.474;11.106;2022-07-29T13:38:51;6.82;;;3.70;;
46355;SDS011;32066;49.474;11.106;2022-07-29T13:41:18;5.53;;;3.13;;
46355;SDS011;32066;49.474;11.106;2022-07-29T13:43:45;7.75;;;3.33;;
46355;SDS011;32066;49.474;11.106;2022-07-29T13:46:14;8.93;;;3.17;;
46355;SDS011;32066;49.474;11.106;2022-07-29T13:48:41;10.30;;;3.30;;
46355;SDS011;32066;49.474;11.106;2022-07-29T13:51:07;10.60;;;3.40;;
46355;SDS011;32066;49.474;11.106;2022-07-29T13:53:35;9.27;;;3.83;;
46355;SDS011;32066;49.474;11.106;2022-07-29T13:56:02;9.27;;;4.38;;
46355;SDS011;32066;49.474;11.106;2022-07-29T13:58:31;5.82;;;3.00;;
46355;SDS011;32066;49.474;11.106;2022-07-29T14:00:58;5.00;;;2.53;;
46355;SDS011;32066;49.474;11.106;2022-07-29T14:03:26;5.78;;;3.28;;
46355;SDS011;32066;49.474;11.106;2022-07-29T14:05:54;11.45;;;3.47;;
46355;SDS011;32066;49.474;11.106;2022-07-29T14:08:21;7.13;;;3.08;;
46355;SDS011;32066;49.474;11.106;2022-07-29T14:10:48;8.77;;;2.88;;
46355;SDS011;32066;49.474;11.106;2022-07-29T14:13:15;5.10;;;2.85;;
46355;SDS011;32066;49.474;11.106;2022-07-29T14:15:42;5.93;;;3.42;;
46355;SDS011;32066;49.474;11.106;2022-07-29T14:18:09;6.97;;;2.78;;
46355;SDS011;32066;49.474;11.106;2022-07-29T14:20:37;6.18;;;2.80;;
46355;SDS011;32066;49.474;11.106;2022-07-29T14:23:04;5.88;;;2.90;;
46355;SDS011;32066;49.474;11.106;2022-07-29T14:25:31;5.07;;;2.47;;
46355;SDS011;32066;49.474;11.106;2022-07-29T14:27:58;8.23;;;3.03;;
46355;SDS011;32066;49.474;11.106;2022-07-29T14:30:25;9.55;;;2.90;;
46355;SDS011;32066;49.474;11.106;2022-07-29T14:32:52;5.13;;;2.50;;
46355;SDS011;32066;49.474;11.106;2022-07-29T14:35:19;6.60;;;3.00;;
46355;SDS011;32066;49.474;11.106;2022-07-29T14:37:47;7.10;;;2.97;;
46355;SDS011;32066;49.474;11.106;2022-07-29T14:40:14;6.00;;;3.03;;
46355;SDS011;32066;49.474;11.106;2022-07-29T14:42:41;6.00;;;2.83;;
46355;SDS011;32066;49.474;11.106;2022-07-29T14:45:09;7.18;;;2.80;;
46355;SDS011;32066;49.474;11.106;2022-07-29T14:47:36;4.60;;;2.80;;
46355;SDS011;32066;49.474;11.106;2022-07-29T14:50:04;8.75;;;3.45;;
46355;SDS011;32066;49.474;11.106;2022-07-29T14:52:32;5.82;;;2.80;;
46355;SDS011;32066;49.474;11.106;2022-07-29T14:55:01;6.70;;;3.33;;
46355;SDS011;32066;49.474;11.106;2022-07-29T14:57:29;8.13;;;2.90;;
46355;SDS011;32066;49.474;11.106;2022-07-29T14:59:56;5.28;;;3.15;;
46355;SDS011;32066;49.474;11.106;2022-07-29T15:02:23;5.70;;;2.70;;